Time;durP1;ratioP1;P1;durP2;ratioP2;P2;SDS_P1;SDS_P2;PMS_P1;PMS_P2;Temp;Humidity;BMP_temperature;BMP_pressure;BME280_temperature;BME280_humidity;BME280_pressure;Samples;Min_cycle;Max_cycle;Signal;HPM_P1;HPM_P2
2022/11/02 00:01:48;;;;;;;22.02;15.55;;;;;;;;;;5053981;28;20017;-72
2022/11/02 00:04:14;;;;;;;23.65;15.43;;;;;;;;;;5054262;28;20020;-72
2022/11/02 00:06:40;;;;;;;23.25;14.82;;;;;;;;;;5054164;28;20100;-72
2022/11/02 00:09:05;;;;;;;22.27;14.98;;;;;;;;;;5053773;28;20455;-73
2022/11/02 00:11:31;;;;;;;23.23;15.85;;;;;;;;;;5053996;28;20108;-73
2022/11/02 00:13:56;;;;;;;23.67;15.00;;;;;;;;;;5054131;28;20032;-74
2022/11/02 00:16:22;;;;;;;23.65;14.65;;;;;;;;;;5053635;28;20029;-74
2022/11/02 00:18:49;;;;;;;19.90;14.20;;;;;;;;;;5052897;28;20029;-75
2022/11/02 00:21:16;;;;;;;22.00;14.32;;;;;;;;;;5053082;28;20103;-73
2022/11/02 00:23:42;;;;;;;23.20;14.73;;;;;;;;;;5052163;28;20014;-73
2022/11/02 00:26:08;;;;;;;23.95;14.88;;;;;;;;;;5053547;28;20036;-73
2022/11/02 00:28:34;;;;;;;22.65;14.52;;;;;;;;;;5035778;28;20025;-73
2022/11/02 00:30:59;;;;;;;23.48;15.60;;;;;;;;;;5053652;28;20025;-73
2022/11/02 00:33:25;;;;;;;22.73;15.00;;;;;;;;;;5053472;28;20166;-73
2022/11/02 00:35:51;;;;;;;22.42;14.52;;;;;;;;;;5035902;28;20029;-73
2022/11/02 00:38:17;;;;;;;21.38;15.13;;;;;;;;;;5053946;28;20236;-73
2022/11/02 00:40:42;;;;;;;21.30;14.85;;;;;;;;;;5053936;28;20167;-74
2022/11/02 00:43:08;;;;;;;21.08;14.07;;;;;;;;;;5053611;28;20528;-75
2022/11/02 00:45:33;;;;;;;24.20;15.73;;;;;;;;;;5052291;28;20424;-74
2022/11/02 00:47:59;;;;;;;20.77;14.13;;;;;;;;;;5052234;28;20025;-75
2022/11/02 00:50:27;;;;;;;19.20;14.02;;;;;;;;;;5036260;28;20170;-74
2022/11/02 00:52:52;;;;;;;20.00;14.40;;;;;;;;;;5052297;28;20029;-73
2022/11/02 00:55:18;;;;;;;21.85;14.05;;;;;;;;;;5051972;28;20461;-76
2022/11/02 00:57:43;;;;;;;26.70;15.23;;;;;;;;;;5053237;28;20116;-72
2022/11/02 01:00:10;;;;;;;21.42;14.73;;;;;;;;;;5052719;28;20370;-72
2022/11/02 01:02:36;;;;;;;21.70;14.43;;;;;;;;;;5052386;28;20032;-72
2022/11/02 01:05:02;;;;;;;23.15;14.93;;;;;;;;;;5053316;28;20040;-72
2022/11/02 01:07:28;;;;;;;24.38;15.57;;;;;;;;;;5053229;28;20036;-72
2022/11/02 01:09:53;;;;;;;21.63;14.95;;;;;;;;;;5052011;28;20021;-72
2022/11/02 01:12:19;;;;;;;22.10;15.77;;;;;;;;;;5051992;28;20116;-72
2022/11/02 01:14:49;;;;;;;22.52;15.82;;;;;;;;;;5052993;28;20032;-75
2022/11/02 01:17:14;;;;;;;21.67;15.48;;;;;;;;;;5053377;28;20033;-73
2022/11/02 01:19:40;;;;;;;21.27;14.20;;;;;;;;;;5053260;28;20021;-73
2022/11/02 01:22:05;;;;;;;24.02;14.88;;;;;;;;;;5053612;28;20032;-72
2022/11/02 01:24:32;;;;;;;20.15;14.55;;;;;;;;;;5055427;28;20043;-72
2022/11/02 01:26:58;;;;;;;23.85;14.70;;;;;;;;;;5057313;28;20461;-72
2022/11/02 01:29:24;;;;;;;25.90;14.90;;;;;;;;;;5055967;28;20021;-72
2022/11/02 01:31:52;;;;;;;21.80;14.30;;;;;;;;;;5055265;28;20124;-71
2022/11/02 01:34:18;;;;;;;22.33;13.90;;;;;;;;;;5056621;28;20095;-71
2022/11/02 01:36:44;;;;;;;25.10;15.73;;;;;;;;;;5054969;28;20080;-72
2022/11/02 01:39:10;;;;;;;22.33;13.77;;;;;;;;;;5056932;28;20107;-72
2022/11/02 01:41:35;;;;;;;22.45;14.35;;;;;;;;;;5055408;28;20063;-73
2022/11/02 01:44:01;;;;;;;19.70;14.25;;;;;;;;;;5056721;28;20025;-73
2022/11/02 01:46:39;;;;;;;25.63;15.55;;;;;;;;;;5055489;28;20021;-74
2022/11/02 01:49:23;;;;;;;25.60;16.25;;;;;;;;;;5056471;28;20104;-73
2022/11/02 01:51:50;;;;;;;25.83;15.95;;;;;;;;;;5056293;28;20130;-73
2022/11/02 01:54:19;;;;;;;29.05;17.15;;;;;;;;;;5055360;28;20097;-73
2022/11/02 01:56:47;;;;;;;23.67;15.13;;;;;;;;;;5055767;28;20353;-73
2022/11/02 01:59:15;;;;;;;26.00;15.73;;;;;;;;;;5054836;28;20025;-73
2022/11/02 02:01:40;;;;;;;27.80;16.27;;;;;;;;;;5054798;28;20116;-73
2022/11/02 02:04:07;;;;;;;26.63;15.45;;;;;;;;;;5055160;28;20044;-73
2022/11/02 02:06:36;;;;;;;23.08;15.10;;;;;;;;;;5055225;28;20111;-73
2022/11/02 02:09:04;;;;;;;25.23;15.73;;;;;;;;;;5054532;28;20059;-73
2022/11/02 02:11:31;;;;;;;26.13;16.27;;;;;;;;;;5056210;28;20025;-73
2022/11/02 02:14:08;;;;;;;26.52;16.23;;;;;;;;;;5055973;28;20021;-73
2022/11/02 02:16:58;;;;;;;25.25;17.20;;;;;;;;;;5039355;28;20029;-72
2022/11/02 02:19:30;;;;;;;26.35;16.77;;;;;;;;;;5054712;28;20037;-72
2022/11/02 02:22:09;;;;;;;23.17;16.17;;;;;;;;;;5054700;28;20037;-72
2022/11/02 02:24:43;;;;;;;23.58;15.55;;;;;;;;;;5055770;28;20465;-74
2022/11/02 02:27:13;;;;;;;24.27;15.98;;;;;;;;;;5054601;28;20052;-73
2022/11/02 02:30:00;;;;;;;24.70;16.48;;;;;;;;;;5054157;28;20404;-76
2022/11/02 02:32:32;;;;;;;24.63;15.73;;;;;;;;;;5055359;28;20405;-73
2022/11/02 02:34:57;;;;;;;;;;;;;;;;;;5054526;28;20041;-73
2022/11/02 02:37:26;;;;;;;24.08;15.48;;;;;;;;;;5055212;28;19924;-72
2022/11/02 02:39:57;;;;;;;24.52;15.50;;;;;;;;;;5053906;28;20082;-72
2022/11/02 02:42:31;;;;;;;22.63;14.85;;;;;;;;;;5054481;28;20044;-72
2022/11/02 02:45:03;;;;;;;22.77;15.38;;;;;;;;;;5037327;28;20029;-73
2022/11/02 02:47:31;;;;;;;22.70;15.18;;;;;;;;;;5037614;28;20060;-74
2022/11/02 02:50:02;;;;;;;22.95;14.32;;;;;;;;;;5037518;28;20029;-74
2022/11/02 02:52:29;;;;;;;20.80;14.25;;;;;;;;;;5054178;28;20058;-74
2022/11/02 02:54:56;;;;;;;23.98;15.52;;;;;;;;;;5053834;28;20070;-75
2022/11/02 02:57:24;;;;;;;23.65;15.77;;;;;;;;;;5053886;28;20477;-75
2022/11/02 02:59:49;;;;;;;20.40;14.88;;;;;;;;;;5055134;28;20024;-74
2022/11/02 03:02:25;;;;;;;19.35;13.57;;;;;;;;;;5055246;28;20051;-74
2022/11/02 03:04:51;;;;;;;15.40;12.23;;;;;;;;;;5054166;28;20064;-75
2022/11/02 03:07:25;;;;;;;19.92;13.00;;;;;;;;;;5053817;28;20467;-74
2022/11/02 03:09:59;;;;;;;19.27;13.18;;;;;;;;;;5053335;28;20029;-74
2022/11/02 03:12:40;;;;;;;18.13;12.60;;;;;;;;;;5037142;28;20511;-73
2022/11/02 03:15:10;;;;;;;18.00;12.50;;;;;;;;;;5053270;28;20392;-71
2022/11/02 03:17:41;;;;;;;13.27;11.38;;;;;;;;;;5053240;28;20024;-71
2022/11/02 03:20:10;;;;;;;15.43;11.95;;;;;;;;;;5053417;28;20044;-71
2022/11/02 03:22:44;;;;;;;15.23;11.75;;;;;;;;;;5036887;28;20017;-71
2022/11/02 03:25:17;;;;;;;18.70;13.02;;;;;;;;;;5053306;28;20028;-71
2022/11/02 03:27:54;;;;;;;18.30;13.27;;;;;;;;;;5053010;28;20496;-71
2022/11/02 03:30:23;;;;;;;17.92;13.20;;;;;;;;;;5054809;28;20545;-72
2022/11/02 03:33:05;;;;;;;22.23;14.73;;;;;;;;;;5053630;28;20035;-71
2022/11/02 03:35:42;;;;;;;21.77;13.88;;;;;;;;;;5036855;28;20033;-71
2022/11/02 03:38:11;;;;;;;19.80;13.75;;;;;;;;;;5000184;28;20044;-71
2022/11/02 03:40:39;;;;;;;20.17;13.98;;;;;;;;;;5034379;28;20037;-72
2022/11/02 03:43:05;;;;;;;21.33;14.07;;;;;;;;;;5016643;28;20017;-71
2022/11/02 03:45:35;;;;;;;18.10;13.18;;;;;;;;;;5016553;28;20437;-71
2022/11/02 03:48:03;;;;;;;21.30;13.80;;;;;;;;;;5016741;28;20469;-74
2022/11/02 03:50:30;;;;;;;21.70;14.60;;;;;;;;;;5038040;28;20036;-72
2022/11/02 03:53:00;;;;;;;19.08;14.48;;;;;;;;;;5020210;28;20108;-75
2022/11/02 03:55:38;;;;;;;21.77;14.55;;;;;;;;;;5016843;28;20041;-72
2022/11/02 03:58:04;;;;;;;23.48;16.25;;;;;;;;;;5034123;28;20096;-72
2022/11/02 04:00:34;;;;;;;22.52;13.93;;;;;;;;;;5016862;28;20018;-71
2022/11/02 04:03:07;;;;;;;25.63;16.42;;;;;;;;;;5000475;28;20022;-73
2022/11/02 04:05:38;;;;;;;29.00;16.38;;;;;;;;;;5033814;28;20104;-74
2022/11/02 04:08:43;;;;;;;27.25;15.65;;;;;;;;;;5034352;28;20175;-73
2022/11/02 04:16:43;;;;;;;27.98;17.50;;;;;;;;;;5016591;28;20381;-73
2022/11/02 04:19:27;;;;;;;27.02;16.67;;;;;;;;;;5016102;28;20025;-74
2022/11/02 04:27:35;;;;;;;24.02;15.48;;;;;;;;;;4933538;29;20111;-78
2022/11/02 04:30:02;;;;;;;21.88;14.13;;;;;;;;;;4919965;29;20118;-78
2022/11/02 04:35:30;;;;;;;26.52;16.45;;;;;;;;;;4935378;29;20027;-77
2022/11/02 04:40:42;;;;;;;23.83;14.88;;;;;;;;;;4935429;29;20060;-78
2022/11/02 04:43:08;;;;;;;21.80;14.52;;;;;;;;;;4950914;29;20067;-78
2022/11/02 04:45:34;;;;;;;32.17;17.30;;;;;;;;;;4935176;29;20038;-78
2022/11/02 04:48:07;;;;;;;32.88;17.20;;;;;;;;;;4935907;29;20416;-78
2022/11/02 04:50:34;;;;;;;28.52;18.13;;;;;;;;;;4935215;29;20702;-77
2022/11/02 04:53:00;;;;;;;30.50;18.58;;;;;;;;;;4935088;29;20068;-78
2022/11/02 04:55:29;;;;;;;32.00;19.35;;;;;;;;;;4935490;29;20036;-77
2022/11/02 04:57:54;;;;;;;31.00;19.33;;;;;;;;;;4919904;29;20042;-78
2022/11/02 05:00:22;;;;;;;33.47;19.50;;;;;;;;;;4954668;29;20035;-77
2022/11/02 05:02:49;;;;;;;40.00;20.33;;;;;;;;;;4938759;29;20023;-77
2022/11/02 05:05:18;;;;;;;34.15;20.52;;;;;;;;;;4938208;29;20031;-78
2022/11/02 05:07:44;;;;;;;34.55;20.08;;;;;;;;;;4922241;29;20012;-78
2022/11/02 05:10:10;;;;;;;38.60;20.00;;;;;;;;;;4954074;29;20062;-77
2022/11/02 05:12:36;;;;;;;42.90;22.30;;;;;;;;;;4938915;29;20055;-78
2022/11/02 05:15:03;;;;;;;38.72;22.45;;;;;;;;;;4937388;29;20031;-77
2022/11/02 05:17:28;;;;;;;40.53;22.95;;;;;;;;;;4921668;29;20023;-77
2022/11/02 05:19:54;;;;;;;44.47;23.55;;;;;;;;;;4953396;29;20035;-77
2022/11/02 05:22:20;;;;;;;48.35;24.25;;;;;;;;;;4953270;29;20020;-77
2022/11/02 05:24:47;;;;;;;45.25;22.38;;;;;;;;;;4937333;29;20032;-77
2022/11/02 05:27:13;;;;;;;55.97;32.33;;;;;;;;;;4955793;29;20126;-77
2022/11/02 05:29:39;;;;;;;46.08;25.15;;;;;;;;;;4955798;29;20224;-77
2022/11/02 05:32:05;;;;;;;41.95;23.75;;;;;;;;;;4955075;28;20540;-77
2022/11/02 05:34:31;;;;;;;40.25;22.15;;;;;;;;;;4971656;28;20038;-77
2022/11/02 05:36:57;;;;;;;42.97;23.90;;;;;;;;;;4956012;28;20554;-78
2022/11/02 05:39:27;;;;;;;41.80;23.73;;;;;;;;;;4971239;28;20241;-77
2022/11/02 05:41:53;;;;;;;45.15;23.33;;;;;;;;;;4957321;29;20054;-72
2022/11/02 05:44:20;;;;;;;40.40;21.88;;;;;;;;;;4955861;28;20022;-71
2022/11/02 05:46:45;;;;;;;39.97;22.00;;;;;;;;;;4955724;28;20042;-71
2022/11/02 05:49:10;;;;;;;39.58;22.33;;;;;;;;;;4954941;29;20024;-71
2022/11/02 05:51:36;;;;;;;41.53;22.13;;;;;;;;;;4955539;29;20038;-72
2022/11/02 05:54:01;;;;;;;39.08;21.95;;;;;;;;;;4956501;29;20082;-71
2022/11/02 05:56:27;;;;;;;40.80;21.10;;;;;;;;;;4956946;29;20038;-71
2022/11/02 05:58:55;;;;;;;37.80;21.05;;;;;;;;;;4956879;29;20020;-71
2022/11/02 06:01:20;;;;;;;39.78;21.75;;;;;;;;;;4956522;29;20039;-72
2022/11/02 06:03:45;;;;;;;37.42;20.70;;;;;;;;;;4955546;28;20012;-72
2022/11/02 06:06:11;;;;;;;31.95;20.00;;;;;;;;;;4956704;29;20392;-72
2022/11/02 06:08:37;;;;;;;35.50;22.05;;;;;;;;;;4956476;28;20113;-72
2022/11/02 06:11:07;;;;;;;35.03;21.98;;;;;;;;;;4955433;29;20054;-72
2022/11/02 06:13:32;;;;;;;36.22;21.15;;;;;;;;;;4956396;29;20095;-72
2022/11/02 06:15:59;;;;;;;18.92;14.18;;;;;;;;;;4956538;29;20377;-72
2022/11/02 06:18:24;;;;;;;15.27;13.13;;;;;;;;;;4956358;29;20074;-72
2022/11/02 06:20:50;;;;;;;19.35;14.45;;;;;;;;;;4956201;29;20039;-72
2022/11/02 06:23:17;;;;;;;12.80;10.45;;;;;;;;;;4956586;29;20094;-72
2022/11/02 06:25:48;;;;;;;20.38;14.65;;;;;;;;;;4955199;28;20043;-72
2022/11/02 06:28:14;;;;;;;20.33;14.90;;;;;;;;;;4957763;29;20498;-72
2022/11/02 06:30:39;;;;;;;22.88;17.33;;;;;;;;;;4956127;28;20027;-72
2022/11/02 06:33:04;;;;;;;21.38;16.75;;;;;;;;;;4955050;28;20024;-72
2022/11/02 06:35:30;;;;;;;21.40;16.08;;;;;;;;;;4956100;29;20023;-72
2022/11/02 06:37:55;;;;;;;20.48;15.80;;;;;;;;;;4956218;29;20050;-73
2022/11/02 06:40:20;;;;;;;21.08;15.82;;;;;;;;;;4971005;28;20023;-73
2022/11/02 06:42:46;;;;;;;22.60;16.77;;;;;;;;;;4956082;29;20122;-72
2022/11/02 06:45:11;;;;;;;22.40;16.35;;;;;;;;;;4956063;29;20094;-72
2022/11/02 06:47:37;;;;;;;21.23;16.17;;;;;;;;;;4954809;29;20039;-73
2022/11/02 06:50:03;;;;;;;21.25;16.23;;;;;;;;;;4955990;29;20035;-72
2022/11/02 06:52:29;;;;;;;23.77;17.33;;;;;;;;;;4955875;29;20050;-72
2022/11/02 06:54:55;;;;;;;26.63;18.77;;;;;;;;;;4955950;29;20027;-72
2022/11/02 06:57:21;;;;;;;25.23;18.90;;;;;;;;;;4955873;29;20031;-72
2022/11/02 06:59:46;;;;;;;22.20;17.17;;;;;;;;;;4955719;29;20086;-72
2022/11/02 07:02:12;;;;;;;24.95;17.10;;;;;;;;;;4955943;29;20061;-71
2022/11/02 07:04:37;;;;;;;23.50;16.95;;;;;;;;;;4954405;28;20023;-71
2022/11/02 07:07:02;;;;;;;20.38;15.65;;;;;;;;;;4955438;29;20554;-71
2022/11/02 07:09:29;;;;;;;23.42;16.55;;;;;;;;;;4954189;29;20027;-71
2022/11/02 07:11:54;;;;;;;23.27;15.50;;;;;;;;;;4955581;29;20065;-71
2022/11/02 07:14:20;;;;;;;23.25;15.52;;;;;;;;;;4955739;29;20550;-71
2022/11/02 07:16:45;;;;;;;23.58;17.05;;;;;;;;;;4954991;29;20042;-71
2022/11/02 07:19:10;;;;;;;24.38;17.08;;;;;;;;;;4953940;29;20071;-72
2022/11/02 07:21:36;;;;;;;24.17;16.77;;;;;;;;;;4953226;28;20027;-72
2022/11/02 07:24:02;;;;;;;21.55;14.82;;;;;;;;;;4953407;29;20074;-72
2022/11/02 07:26:28;;;;;;;21.00;14.75;;;;;;;;;;4953692;29;20089;-72
2022/11/02 07:28:53;;;;;;;15.43;11.05;;;;;;;;;;4953871;29;20043;-72
2022/11/02 07:31:20;;;;;;;19.13;13.50;;;;;;;;;;4954173;29;20031;-72
2022/11/02 07:33:46;;;;;;;17.27;12.63;;;;;;;;;;4954013;29;20023;-72
2022/11/02 07:36:12;;;;;;;21.40;14.95;;;;;;;;;;4953505;29;20395;-72
2022/11/02 07:38:37;;;;;;;25.45;16.67;;;;;;;;;;4952205;28;20024;-72
2022/11/02 07:41:02;;;;;;;24.85;16.65;;;;;;;;;;4952814;29;20471;-72
2022/11/02 07:43:28;;;;;;;24.55;16.52;;;;;;;;;;4954601;29;20546;-72
2022/11/02 07:46:00;;;;;;;21.83;15.82;;;;;;;;;;4953126;29;20074;-72
2022/11/02 07:48:25;;;;;;;22.13;15.43;;;;;;;;;;4954909;29;20030;-72
2022/11/02 07:50:51;;;;;;;23.20;16.63;;;;;;;;;;4953652;29;20023;-72
2022/11/02 07:53:16;;;;;;;26.23;17.80;;;;;;;;;;4953661;29;20094;-72
2022/11/02 07:55:41;;;;;;;27.67;17.60;;;;;;;;;;4954824;29;20027;-72
2022/11/02 07:58:09;;;;;;;29.15;17.65;;;;;;;;;;4953545;28;20043;-72
2022/11/02 08:00:39;;;;;;;27.52;17.60;;;;;;;;;;4954659;29;20083;-72
2022/11/02 08:03:06;;;;;;;26.67;17.35;;;;;;;;;;4954737;29;20368;-72
2022/11/02 08:05:35;;;;;;;25.48;17.45;;;;;;;;;;4969274;28;20098;-72
2022/11/02 08:08:02;;;;;;;28.23;18.37;;;;;;;;;;4955018;29;20042;-72
2022/11/02 08:10:28;;;;;;;29.25;19.13;;;;;;;;;;4954354;29;20113;-72
2022/11/02 08:12:54;;;;;;;28.25;18.38;;;;;;;;;;4954556;29;20031;-72
2022/11/02 08:15:21;;;;;;;28.83;17.75;;;;;;;;;;4954582;29;20034;-72
2022/11/02 08:17:47;;;;;;;33.90;20.30;;;;;;;;;;4954487;29;20034;-72
2022/11/02 08:20:13;;;;;;;36.40;21.30;;;;;;;;;;4969203;28;20025;-72
2022/11/02 08:22:39;;;;;;;35.00;21.33;;;;;;;;;;4954270;29;20038;-72
2022/11/02 08:25:05;;;;;;;40.25;22.88;;;;;;;;;;4953100;29;20353;-72
2022/11/02 08:27:30;;;;;;;39.33;21.88;;;;;;;;;;4954401;29;20043;-72
2022/11/02 08:29:55;;;;;;;46.97;24.23;;;;;;;;;;4954154;29;20392;-72
2022/11/02 08:32:21;;;;;;;42.60;23.10;;;;;;;;;;4955301;28;20043;-72
2022/11/02 08:34:46;;;;;;;33.83;19.88;;;;;;;;;;4958595;29;20027;-72
2022/11/02 08:37:12;;;;;;;40.17;20.50;;;;;;;;;;4957283;29;20075;-72
2022/11/02 08:39:37;;;;;;;35.25;19.98;;;;;;;;;;4958266;29;20031;-72
2022/11/02 08:42:02;;;;;;;42.17;21.33;;;;;;;;;;4958852;29;20024;-72
2022/11/02 08:44:28;;;;;;;35.47;20.23;;;;;;;;;;4958374;29;20512;-72
2022/11/02 08:46:54;;;;;;;28.60;15.60;;;;;;;;;;4956934;29;20127;-72
2022/11/02 08:49:20;;;;;;;29.55;16.05;;;;;;;;;;4958176;29;20019;-72
2022/11/02 08:51:46;;;;;;;27.45;15.63;;;;;;;;;;4958091;29;20067;-72
2022/11/02 08:54:11;;;;;;;34.72;19.10;;;;;;;;;;4958109;29;20069;-72
2022/11/02 08:56:37;;;;;;;32.42;17.13;;;;;;;;;;4958098;29;20499;-73
2022/11/02 08:59:02;;;;;;;41.80;20.52;;;;;;;;;;4972823;28;20026;-73
2022/11/02 09:01:28;;;;;;;42.90;22.65;;;;;;;;;;4957553;29;20630;-73
2022/11/02 09:03:53;;;;;;;42.00;22.35;;;;;;;;;;4957923;29;20019;-73
2022/11/02 09:06:18;;;;;;;38.95;20.88;;;;;;;;;;4957575;29;20364;-72
2022/11/02 09:08:44;;;;;;;38.28;20.90;;;;;;;;;;4957845;29;20072;-73
2022/11/02 09:11:09;;;;;;;36.50;19.85;;;;;;;;;;4957441;29;20046;-72
2022/11/02 09:13:36;;;;;;;43.60;21.95;;;;;;;;;;4957664;29;20023;-72
2022/11/02 09:16:01;;;;;;;37.63;21.27;;;;;;;;;;4957667;29;20114;-73
2022/11/02 09:18:27;;;;;;;42.17;21.77;;;;;;;;;;4957404;29;20120;-73
2022/11/02 09:20:53;;;;;;;44.20;24.83;;;;;;;;;;4957530;29;20555;-73
2022/11/02 09:23:19;;;;;;;37.90;22.63;;;;;;;;;;4957307;29;20495;-73
2022/11/02 09:25:45;;;;;;;43.17;23.52;;;;;;;;;;4959487;29;20040;-73
2022/11/02 09:28:11;;;;;;;31.33;19.02;;;;;;;;;;4960856;29;20082;-73
2022/11/02 09:30:37;;;;;;;39.28;23.23;;;;;;;;;;4959568;29;20028;-73
2022/11/02 09:33:03;;;;;;;39.72;23.55;;;;;;;;;;4957453;29;20016;-73
2022/11/02 09:35:37;;;;;;;39.63;21.75;;;;;;;;;;4957505;29;20114;-73
2022/11/02 09:38:02;;;;;;;42.88;21.85;;;;;;;;;;4957015;28;20059;-73
2022/11/02 09:40:29;;;;;;;30.85;18.92;;;;;;;;;;4956395;28;20113;-73
2022/11/02 09:43:04;;;;;;;38.85;22.55;;;;;;;;;;4957258;29;20102;-72
2022/11/02 09:45:33;;;;;;;31.77;18.27;;;;;;;;;;4955371;28;20030;-73
2022/11/02 09:48:04;;;;;;;33.55;18.10;;;;;;;;;;4957136;29;20502;-72
2022/11/02 09:50:37;;;;;;;31.27;18.60;;;;;;;;;;4972235;28;20115;-73
2022/11/02 09:53:05;;;;;;;32.78;18.23;;;;;;;;;;4957125;29;20039;-72
2022/11/02 09:55:32;;;;;;;42.15;22.90;;;;;;;;;;4957033;29;20114;-72
2022/11/02 09:58:12;;;;;;;41.92;22.92;;;;;;;;;;4956921;29;20066;-73
2022/11/02 10:00:39;;;;;;;30.08;16.70;;;;;;;;;;4956947;29;20039;-73
2022/11/02 10:03:13;;;;;;;38.50;22.52;;;;;;;;;;4956892;29;20020;-73
2022/11/02 10:05:46;;;;;;;39.22;21.65;;;;;;;;;;4956595;29;20063;-73
2022/11/02 10:08:12;;;;;;;36.60;21.50;;;;;;;;;;4955935;29;20031;-73
2022/11/02 10:10:37;;;;;;;36.60;21.70;;;;;;;;;;4955831;28;20035;-73
2022/11/02 10:13:02;;;;;;;37.72;20.73;;;;;;;;;;4955842;29;20038;-73
2022/11/02 10:15:35;;;;;;;36.83;21.63;;;;;;;;;;4956702;29;20483;-79
2022/11/02 10:18:02;;;;;;;33.67;19.27;;;;;;;;;;4971499;28;20042;-79
2022/11/02 10:20:39;;;;;;;36.88;19.58;;;;;;;;;;4956769;29;20082;-73
2022/11/02 10:23:06;;;;;;;33.83;17.17;;;;;;;;;;4971882;28;20099;-73
2022/11/02 10:25:32;;;;;;;34.80;17.95;;;;;;;;;;4956380;29;20122;-73
2022/11/02 10:28:03;;;;;;;36.10;17.08;;;;;;;;;;4956357;29;20383;-73
2022/11/02 10:30:28;;;;;;;38.30;20.52;;;;;;;;;;4956344;29;20126;-73
2022/11/02 10:32:55;;;;;;;32.53;14.68;;;;;;;;;;4954904;29;20125;-73
2022/11/02 10:35:20;;;;;;;25.98;14.68;;;;;;;;;;4955912;29;20027;-73
2022/11/02 10:37:55;;;;;;;33.05;15.20;;;;;;;;;;4955958;29;20026;-73
2022/11/02 10:40:29;;;;;;;26.83;14.45;;;;;;;;;;4970696;28;20038;-73
2022/11/02 10:43:21;;;;;;;26.83;15.07;;;;;;;;;;4970937;28;20468;-73
2022/11/02 10:45:58;;;;;;;25.85;15.20;;;;;;;;;;4956043;29;20034;-73
2022/11/02 10:48:39;;;;;;;22.30;13.30;;;;;;;;;;4955757;29;20472;-73
2022/11/02 10:51:11;;;;;;;21.15;12.05;;;;;;;;;;4955975;29;20027;-73
2022/11/02 10:53:44;;;;;;;23.38;11.82;;;;;;;;;;4955636;28;20035;-70
2022/11/02 10:56:10;;;;;;;19.55;11.50;;;;;;;;;;4954356;28;20042;-61
2022/11/02 10:58:37;;;;;;;19.70;12.32;;;;;;;;;;4964650;28;20027;-72
2022/11/02 11:01:04;;;;;;;27.15;15.65;;;;;;;;;;4954142;29;20027;-71
2022/11/02 11:03:29;;;;;;;27.33;15.27;;;;;;;;;;4954061;29;20055;-71
2022/11/02 11:05:58;;;;;;;16.02;9.15;;;;;;;;;;4953725;29;20074;-71
2022/11/02 11:08:27;;;;;;;13.52;9.00;;;;;;;;;;4967778;28;20027;-72
2022/11/02 11:10:53;;;;;;;17.30;10.25;;;;;;;;;;4953978;29;20041;-61
2022/11/02 11:13:21;;;;;;;12.13;7.20;;;;;;;;;;4953746;29;20382;-61
2022/11/02 11:15:50;;;;;;;12.10;6.32;;;;;;;;;;4954281;29;20035;-61
2022/11/02 11:18:17;;;;;;;8.13;5.75;;;;;;;;;;4953688;29;20030;-70
2022/11/02 11:20:43;;;;;;;8.45;5.60;;;;;;;;;;4968131;28;20073;-70
2022/11/02 11:23:24;;;;;;;5.45;4.93;;;;;;;;;;4953411;29;20033;-70
2022/11/02 11:25:54;;;;;;;5.95;3.67;;;;;;;;;;4953364;29;20460;-70
2022/11/02 11:28:21;;;;;;;6.53;4.45;;;;;;;;;;4953147;29;20031;-70
2022/11/02 11:30:49;;;;;;;6.50;4.80;;;;;;;;;;4951974;29;20067;-70
2022/11/02 11:33:15;;;;;;;7.95;4.82;;;;;;;;;;4951687;29;20451;-70
2022/11/02 11:35:46;;;;;;;7.00;4.78;;;;;;;;;;4953376;29;20111;-70
2022/11/02 11:38:16;;;;;;;6.82;4.80;;;;;;;;;;4953256;29;20070;-76
2022/11/02 11:40:52;;;;;;;7.20;5.35;;;;;;;;;;4953730;29;20467;-76
2022/11/02 11:43:19;;;;;;;7.78;4.20;;;;;;;;;;4952941;29;20043;-76
2022/11/02 11:45:58;;;;;;;10.45;4.60;;;;;;;;;;4968675;28;20051;-70
2022/11/02 11:48:26;;;;;;;6.80;4.70;;;;;;;;;;4952455;29;20138;-70
2022/11/02 11:50:52;;;;;;;8.60;5.85;;;;;;;;;;4953108;29;20035;-70
2022/11/02 11:53:24;;;;;;;8.82;4.78;;;;;;;;;;4968151;28;20062;-70
2022/11/02 11:55:58;;;;;;;12.10;6.88;;;;;;;;;;4951933;29;20032;-76
2022/11/02 11:58:30;;;;;;;17.23;8.90;;;;;;;;;;4953205;29;20114;-76
2022/11/02 12:01:13;;;;;;;6.22;4.18;;;;;;;;;;4952569;29;20041;-76
2022/11/02 12:04:01;;;;;;;5.70;4.15;;;;;;;;;;4953515;29;20031;-76
2022/11/02 12:06:27;;;;;;;4.85;3.80;;;;;;;;;;4956210;28;20082;-76
2022/11/02 12:08:56;;;;;;;5.10;4.18;;;;;;;;;;4956521;28;20428;-76
2022/11/02 12:11:41;;;;;;;5.72;4.15;;;;;;;;;;4971992;28;20050;-76
2022/11/02 12:14:09;;;;;;;7.90;4.70;;;;;;;;;;4955571;29;20027;-76
2022/11/02 12:16:53;;;;;;;5.63;4.25;;;;;;;;;;4953525;29;20023;-76
2022/11/02 12:19:37;;;;;;;5.40;3.88;;;;;;;;;;4951727;29;20035;-75
2022/11/02 12:22:08;;;;;;;6.80;5.03;;;;;;;;;;4951892;29;20058;-76
2022/11/02 12:24:42;;;;;;;4.90;4.05;;;;;;;;;;4949908;28;20480;-75
2022/11/02 12:27:20;;;;;;;5.38;3.80;;;;;;;;;;4965947;28;20047;-75
2022/11/02 12:29:55;;;;;;;4.32;3.33;;;;;;;;;;4950114;29;20098;-75
2022/11/02 12:32:39;;;;;;;4.43;2.97;;;;;;;;;;4951347;29;20468;-75
2022/11/02 12:35:18;;;;;;;4.72;3.38;;;;;;;;;;4950080;29;20059;-75
2022/11/02 12:37:57;;;;;;;3.90;2.85;;;;;;;;;;4966777;28;20125;-75
2022/11/02 12:40:31;;;;;;;3.83;2.90;;;;;;;;;;4951529;29;20133;-75
2022/11/02 12:42:58;;;;;;;3.33;2.75;;;;;;;;;;4952651;29;20034;-75
2022/11/02 12:45:42;;;;;;;3.50;2.63;;;;;;;;;;4951834;29;20130;-75
2022/11/02 12:48:09;;;;;;;3.72;3.33;;;;;;;;;;4952446;29;20537;-75
2022/11/02 12:50:35;;;;;;;4.22;2.90;;;;;;;;;;4966446;28;20102;-75
2022/11/02 12:53:19;;;;;;;3.10;2.78;;;;;;;;;;4949937;29;20086;-75
2022/11/02 12:55:47;;;;;;;4.85;3.58;;;;;;;;;;4952504;29;20055;-75
2022/11/02 12:58:44;;;;;;;4.47;3.50;;;;;;;;;;4952646;29;20066;-75
2022/11/02 13:01:21;;;;;;;3.50;3.10;;;;;;;;;;4928761;29;20498;-75
2022/11/02 13:04:05;;;;;;;3.92;3.13;;;;;;;;;;4950365;29;20555;-75
2022/11/02 13:06:34;;;;;;;3.80;3.40;;;;;;;;;;4952603;29;20458;-71
2022/11/02 13:09:03;;;;;;;5.38;3.60;;;;;;;;;;4950848;29;20015;-71
2022/11/02 13:11:31;;;;;;;4.25;3.53;;;;;;;;;;4952770;29;20043;-71
2022/11/02 13:13:58;;;;;;;6.10;4.03;;;;;;;;;;4950643;29;20019;-71
2022/11/02 13:16:29;;;;;;;3.80;3.08;;;;;;;;;;4948727;29;20053;-71
2022/11/02 13:18:56;;;;;;;4.45;3.22;;;;;;;;;;4950966;28;20395;-71
2022/11/02 13:21:40;;;;;;;3.78;3.15;;;;;;;;;;4952016;29;20138;-71
2022/11/02 13:24:09;;;;;;;5.78;3.47;;;;;;;;;;4953938;29;20031;-71
2022/11/02 13:26:36;;;;;;;4.32;3.28;;;;;;;;;;4953653;29;20039;-71
2022/11/02 13:29:25;;;;;;;4.28;3.03;;;;;;;;;;4968490;28;20027;-71
2022/11/02 13:31:53;;;;;;;6.57;3.53;;;;;;;;;;4952142;29;20031;-71
2022/11/02 13:34:27;;;;;;;5.57;3.53;;;;;;;;;;4968760;28;20027;-71
2022/11/02 13:36:52;;;;;;;3.85;3.33;;;;;;;;;;4952958;29;20031;-71
2022/11/02 13:39:21;;;;;;;4.65;3.42;;;;;;;;;;4953402;29;20521;-71
2022/11/02 13:42:02;;;;;;;4.40;3.60;;;;;;;;;;4956965;29;20162;-71
2022/11/02 13:44:37;;;;;;;4.15;3.67;;;;;;;;;;4955696;29;20102;-71
2022/11/02 13:47:05;;;;;;;28.30;7.22;;;;;;;;;;4954469;28;20039;-71
2022/11/02 13:49:47;;;;;;;28.35;8.07;;;;;;;;;;4955691;29;20015;-71
2022/11/02 13:52:14;;;;;;;21.35;6.47;;;;;;;;;;4944965;28;20034;-71
2022/11/02 13:54:43;;;;;;;9.52;4.93;;;;;;;;;;4953111;29;20042;-71
2022/11/02 13:57:27;;;;;;;5.65;4.68;;;;;;;;;;4953621;29;20118;-71
2022/11/02 13:59:53;;;;;;;4.93;4.03;;;;;;;;;;4953021;29;20031;-71
2022/11/02 14:02:19;;;;;;;4.78;4.25;;;;;;;;;;4951285;29;20027;-71
2022/11/02 14:04:47;;;;;;;5.35;4.35;;;;;;;;;;4953099;29;20443;-71
2022/11/02 14:07:35;;;;;;;6.05;4.40;;;;;;;;;;4967924;28;20031;-71
2022/11/02 14:10:08;;;;;;;7.57;4.75;;;;;;;;;;4948475;29;20043;-71
2022/11/02 14:12:38;;;;;;;6.93;4.47;;;;;;;;;;4969158;28;20046;-71
2022/11/02 14:15:13;;;;;;;6.75;4.40;;;;;;;;;;4955015;29;20114;-71
2022/11/02 14:17:54;;;;;;;4.78;4.15;;;;;;;;;;4953867;28;20185;-71
2022/11/02 14:20:34;;;;;;;4.35;3.35;;;;;;;;;;4952319;28;20106;-71
2022/11/02 14:23:32;;;;;;;5.10;3.67;;;;;;;;;;4953888;29;20043;-71
2022/11/02 14:25:57;;;;;;;4.20;3.80;;;;;;;;;;4954464;29;20043;-71
2022/11/02 14:28:28;;;;;;;4.80;3.83;;;;;;;;;;4955023;29;20511;-70
2022/11/02 14:31:00;;;;;;;5.15;3.55;;;;;;;;;;4953404;28;20043;-70
2022/11/02 14:33:26;;;;;;;4.35;3.95;;;;;;;;;;4952432;29;20067;-71
2022/11/02 14:35:56;;;;;;;7.03;4.50;;;;;;;;;;4953527;29;20031;-71
2022/11/02 14:38:38;;;;;;;6.05;4.47;;;;;;;;;;4954205;29;20047;-71
2022/11/02 14:41:06;;;;;;;7.28;4.90;;;;;;;;;;4952614;28;20134;-71
2022/11/02 14:43:32;;;;;;;9.77;5.13;;;;;;;;;;4954387;29;20038;-71
2022/11/02 14:46:06;;;;;;;9.18;4.80;;;;;;;;;;4954380;29;20064;-71
2022/11/02 14:48:43;;;;;;;6.28;4.35;;;;;;;;;;4952943;29;20121;-69
2022/11/02 14:51:14;;;;;;;6.65;4.50;;;;;;;;;;4954006;29;20031;-70
2022/11/02 14:53:41;;;;;;;6.45;4.70;;;;;;;;;;4953073;28;20050;-70